createdAt,value
2019-03-24T00:00:45.164Z,5.60
2019-03-24T00:03:11.810Z,4.35
2019-03-24T00:05:38.899Z,4.78
2019-03-24T00:08:05.410Z,6.65
2019-03-24T00:10:31.922Z,5.05
2019-03-24T00:12:58.768Z,5.42
2019-03-24T00:15:26.471Z,4.45
2019-03-24T00:17:53.602Z,4.78
2019-03-24T00:20:20.251Z,4.95
2019-03-24T00:22:46.872Z,4.72
2019-03-24T00:25:13.384Z,4.47
2019-03-24T00:27:40.078Z,4.70
2019-03-24T00:30:06.896Z,5.03
2019-03-24T00:32:33.400Z,5.30
2019-03-24T00:35:00.413Z,4.95
2019-03-24T00:37:27.041Z,4.80
2019-03-24T00:39:53.562Z,5.05
2019-03-24T00:42:20.197Z,4.30
2019-03-24T00:44:46.813Z,4.75
2019-03-24T00:47:13.458Z,4.47
2019-03-24T00:49:40.205Z,6.08
2019-03-24T00:52:06.711Z,4.28
2019-03-24T00:54:33.378Z,4.62
2019-03-24T00:57:00.013Z,3.90
2019-03-24T00:59:26.630Z,4.62
2019-03-24T01:01:53.251Z,24.82
2019-03-24T01:04:20.209Z,6.10
2019-03-24T01:06:46.822Z,4.40
2019-03-24T01:09:13.452Z,4.45
2019-03-24T01:11:40.127Z,7.40
2019-03-24T01:14:06.738Z,8.08
2019-03-24T01:16:33.403Z,4.92
2019-03-24T01:19:00.238Z,4.72
2019-03-24T01:21:26.871Z,4.80
2019-03-24T01:23:53.489Z,4.55
2019-03-24T01:26:20.161Z,5.10
2019-03-24T01:28:46.673Z,4.42
2019-03-24T01:31:13.295Z,4.80
2019-03-24T01:33:40.266Z,4.85
2019-03-24T01:36:06.928Z,4.50
2019-03-24T01:38:33.501Z,5.37
2019-03-24T01:41:00.166Z,5.35
2019-03-24T01:43:26.775Z,5.95
2019-03-24T01:45:58.665Z,7.78
2019-03-24T01:48:21.749Z,6.53
2019-03-24T01:50:48.389Z,6.22
2019-03-24T01:53:15.177Z,6.20
2019-03-24T01:55:41.810Z,6.17
2019-03-24T01:58:08.628Z,6.35
2019-03-24T02:00:35.157Z,6.10
2019-03-24T02:03:01.812Z,6.53
2019-03-24T02:05:28.874Z,6.10
2019-03-24T02:07:55.455Z,6.35
2019-03-24T02:10:22.145Z,6.87
2019-03-24T02:12:48.770Z,6.20
2019-03-24T02:15:15.406Z,6.58
2019-03-24T02:17:41.948Z,5.33
2019-03-24T02:20:08.458Z,4.55
2019-03-24T02:22:35.160Z,4.40
2019-03-24T02:25:01.754Z,4.67
2019-03-24T02:27:28.377Z,4.78
2019-03-24T02:29:55.274Z,4.83
2019-03-24T02:32:21.748Z,4.33
2019-03-24T02:34:48.199Z,4.28
2019-03-24T02:37:14.631Z,5.37
2019-03-24T02:39:41.350Z,3.80
2019-03-24T02:42:07.977Z,10.63
2019-03-24T02:44:34.587Z,6.55
2019-03-24T02:47:01.226Z,6.20
2019-03-24T02:49:27.805Z,4.30
2019-03-24T02:51:54.466Z,4.30
2019-03-24T02:54:21.316Z,3.67
2019-03-24T02:56:47.941Z,3.70
2019-03-24T02:59:14.455Z,3.52
2019-03-24T03:01:41.094Z,3.58
2019-03-24T03:04:07.721Z,3.65
2019-03-24T03:06:34.333Z,4.12
2019-03-24T03:09:01.197Z,3.87
2019-03-24T03:11:27.707Z,3.55
2019-03-24T03:13:54.320Z,3.85
2019-03-24T03:16:20.982Z,3.70
2019-03-24T03:18:47.496Z,3.75
2019-03-24T03:21:14.115Z,3.35
2019-03-24T03:23:40.795Z,4.17
2019-03-24T03:26:07.432Z,4.05
2019-03-24T03:28:34.030Z,3.55
2019-03-24T03:31:00.732Z,4.33
2019-03-24T03:33:27.279Z,4.12
2019-03-24T03:35:53.778Z,3.87
2019-03-24T03:38:20.513Z,5.05
2019-03-24T03:40:47.048Z,4.20
2019-03-24T03:43:13.554Z,4.55
2019-03-24T03:45:40.412Z,4.78
2019-03-24T03:48:07.227Z,4.72
2019-03-24T03:50:33.846Z,5.17
2019-03-24T03:53:00.712Z,5.10
2019-03-24T03:55:27.353Z,4.95
2019-03-24T03:57:53.969Z,5.72
2019-03-24T04:00:24.223Z,6.00
2019-03-24T04:02:50.859Z,6.55
2019-03-24T04:05:17.374Z,6.15
2019-03-24T04:07:44.024Z,7.42
2019-03-24T04:10:10.674Z,7.53
2019-03-24T04:12:37.305Z,6.85
2019-03-24T04:15:05.741Z,7.90
2019-03-24T04:17:32.210Z,7.20
2019-03-24T04:19:58.731Z,6.92
2019-03-24T04:22:25.173Z,7.75
2019-03-24T04:24:51.611Z,6.83
2019-03-24T04:27:18.230Z,4.85
2019-03-24T04:29:44.867Z,4.00
2019-03-24T04:32:11.519Z,3.35
2019-03-24T04:34:38.031Z,3.05
2019-03-24T04:37:04.664Z,4.58
2019-03-24T04:39:31.525Z,2.90
2019-03-24T04:41:58.200Z,3.52
2019-03-24T04:44:24.853Z,2.80
2019-03-24T04:46:51.475Z,3.20
2019-03-24T04:49:18.092Z,2.27
2019-03-24T04:51:44.628Z,2.90
2019-03-24T04:54:11.248Z,3.20
2019-03-24T04:56:37.933Z,2.62
2019-03-24T04:59:04.657Z,2.77
2019-03-24T05:01:31.392Z,2.85
2019-03-24T05:03:57.900Z,3.50
2019-03-24T05:06:24.527Z,3.60
2019-03-24T05:08:51.640Z,3.85
2019-03-24T05:11:18.051Z,3.58
2019-03-24T05:13:44.494Z,3.83
2019-03-24T05:16:11.308Z,3.80
2019-03-24T05:18:38.089Z,4.10
2019-03-24T05:21:04.782Z,5.10
2019-03-24T05:23:31.306Z,4.50
2019-03-24T05:25:57.819Z,4.97
2019-03-24T05:28:24.441Z,5.47
2019-03-24T05:30:51.110Z,6.72
2019-03-24T05:33:17.761Z,6.53
2019-03-24T05:35:44.458Z,5.97
2019-03-24T05:38:10.966Z,6.50
2019-03-24T05:40:37.473Z,5.90
2019-03-24T05:43:04.226Z,6.03
2019-03-24T05:45:30.868Z,5.80
2019-03-24T05:47:57.483Z,6.05
2019-03-24T05:50:24.006Z,6.05
2019-03-24T05:52:50.618Z,5.10
2019-03-24T05:55:17.135Z,5.37
2019-03-24T05:57:44.163Z,5.33
2019-03-24T06:00:10.788Z,5.80
2019-03-24T06:02:37.409Z,6.08
2019-03-24T06:05:04.952Z,5.33
2019-03-24T06:07:31.501Z,6.03
2019-03-24T06:09:57.909Z,3.12
2019-03-24T06:12:24.765Z,2.95
2019-03-24T06:14:51.580Z,2.90
2019-03-24T06:17:18.125Z,4.33
2019-03-24T06:19:44.746Z,5.40
2019-03-24T06:22:11.487Z,4.67
2019-03-24T06:24:38.030Z,5.10
2019-03-24T06:27:04.493Z,4.60
2019-03-24T06:29:31.162Z,4.97
2019-03-24T06:31:57.801Z,5.40
2019-03-24T06:34:24.317Z,4.95
2019-03-24T06:36:50.834Z,5.95
2019-03-24T06:39:17.355Z,4.62
2019-03-24T06:41:43.890Z,4.87
2019-03-24T06:44:10.511Z,4.20
2019-03-24T06:46:37.167Z,4.28
2019-03-24T06:49:03.695Z,3.58
2019-03-24T06:51:30.208Z,3.42
2019-03-24T06:53:57.031Z,3.40
2019-03-24T06:56:23.654Z,4.67
2019-03-24T06:58:50.662Z,4.65
2019-03-24T07:01:17.330Z,3.47
2019-03-24T07:03:43.958Z,4.60
2019-03-24T07:06:10.579Z,3.45
2019-03-24T07:08:37.206Z,3.25
2019-03-24T07:11:09.524Z,3.30
2019-03-24T07:13:32.466Z,3.47
2019-03-24T07:15:58.979Z,3.40
2019-03-24T07:18:25.404Z,4.80
2019-03-24T07:20:52.044Z,3.65
2019-03-24T07:23:18.664Z,3.77
2019-03-24T07:25:45.268Z,4.42
2019-03-24T07:28:11.906Z,3.58
2019-03-24T07:30:38.531Z,3.55
2019-03-24T07:33:05.203Z,3.67
2019-03-24T07:35:31.845Z,3.85
2019-03-24T07:37:58.531Z,3.17
2019-03-24T07:40:25.054Z,3.60
2019-03-24T07:42:51.461Z,3.50
2019-03-24T07:45:18.080Z,3.37
2019-03-24T07:47:44.702Z,3.30
2019-03-24T07:50:11.106Z,3.67
2019-03-24T07:52:37.979Z,4.12
2019-03-24T07:55:05.602Z,3.65
2019-03-24T07:57:32.157Z,4.03
2019-03-24T07:59:58.605Z,3.67
2019-03-24T08:02:25.375Z,3.42
2019-03-24T08:04:51.941Z,3.70
2019-03-24T08:07:18.340Z,3.67
2019-03-24T08:09:45.083Z,3.60
2019-03-24T08:12:11.693Z,3.75
2019-03-24T08:14:38.515Z,3.35
2019-03-24T08:17:05.263Z,3.50
2019-03-24T08:19:32.133Z,3.60
2019-03-24T08:21:58.754Z,3.30
2019-03-24T08:24:25.404Z,3.17
2019-03-24T08:26:51.941Z,3.42
2019-03-24T08:29:18.532Z,3.40
2019-03-24T08:31:45.176Z,3.33
2019-03-24T08:34:11.698Z,3.27
2019-03-24T08:36:38.221Z,4.55
2019-03-24T08:39:04.947Z,3.30
2019-03-24T08:41:31.355Z,3.50
2019-03-24T08:43:58.188Z,3.17
2019-03-24T08:46:24.917Z,3.10
2019-03-24T08:48:51.537Z,2.77
2019-03-24T08:51:18.044Z,2.83
2019-03-24T08:53:44.909Z,2.70
2019-03-24T08:56:11.541Z,2.60
2019-03-24T08:58:38.410Z,2.37
2019-03-24T09:01:05.548Z,2.75
2019-03-24T09:03:32.776Z,2.75
2019-03-24T09:05:59.525Z,2.47
2019-03-24T09:08:26.189Z,2.45
2019-03-24T09:10:52.721Z,2.20
2019-03-24T09:13:19.244Z,3.00
2019-03-24T09:15:46.195Z,2.47
2019-03-24T09:18:12.726Z,3.08
2019-03-24T09:20:41.923Z,2.60
2019-03-24T09:23:07.665Z,2.35
2019-03-24T09:25:34.154Z,2.35
2019-03-24T09:28:00.915Z,2.77
2019-03-24T09:30:32.491Z,2.40
2019-03-24T09:32:59.017Z,2.42
2019-03-24T09:35:25.943Z,2.70
2019-03-24T09:37:52.911Z,2.58
2019-03-24T09:40:32.074Z,3.47
2019-03-24T09:42:58.933Z,2.37
2019-03-24T09:45:25.594Z,2.92
2019-03-24T09:47:52.222Z,2.33
2019-03-24T09:50:18.737Z,2.62
2019-03-24T09:52:45.310Z,2.33
2019-03-24T09:55:11.874Z,2.72
2019-03-24T09:57:38.503Z,3.05
2019-03-24T10:00:05.022Z,2.58
2019-03-24T10:02:31.949Z,2.47
2019-03-24T10:04:58.720Z,2.33
2019-03-24T10:07:25.229Z,3.05
2019-03-24T10:09:51.769Z,2.72
2019-03-24T10:12:18.430Z,2.65
2019-03-24T10:14:45.041Z,2.75
2019-03-24T10:17:11.566Z,3.25
2019-03-24T10:19:38.471Z,3.30
2019-03-24T10:22:04.980Z,2.75
2019-03-24T10:24:31.611Z,2.92
2019-03-24T10:26:58.262Z,2.72
2019-03-24T10:29:24.934Z,2.47
2019-03-24T10:31:51.662Z,3.00
2019-03-24T10:34:18.587Z,3.45
2019-03-24T10:36:45.214Z,3.25
2019-03-24T10:39:11.727Z,2.95
2019-03-24T10:41:38.488Z,3.05
2019-03-24T10:44:05.108Z,2.70
2019-03-24T10:46:31.728Z,2.62
2019-03-24T10:48:58.283Z,2.30
2019-03-24T10:51:24.797Z,2.62
2019-03-24T10:53:51.417Z,3.60
2019-03-24T10:56:17.953Z,3.55
2019-03-24T10:58:44.768Z,2.87
2019-03-24T11:01:11.428Z,1.92
2019-03-24T11:03:38.523Z,3.20
2019-03-24T11:06:04.926Z,2.37
2019-03-24T11:08:31.443Z,2.85
2019-03-24T11:10:58.033Z,2.92
2019-03-24T11:13:24.502Z,2.40
2019-03-24T11:15:51.120Z,2.35
2019-03-24T11:18:17.805Z,2.50
2019-03-24T11:20:44.386Z,2.85
2019-03-24T11:23:11.005Z,2.42
2019-03-24T11:25:37.664Z,2.25
2019-03-24T11:28:04.225Z,1.67
2019-03-24T11:30:30.842Z,2.37
2019-03-24T11:32:57.466Z,2.33
2019-03-24T11:35:24.090Z,1.92
2019-03-24T11:37:50.714Z,2.08
2019-03-24T11:40:17.369Z,1.80
2019-03-24T11:42:44.002Z,1.85
2019-03-24T11:45:10.626Z,2.20
2019-03-24T11:47:37.354Z,1.80
2019-03-24T11:50:05.768Z,1.95
2019-03-24T11:52:32.270Z,2.30
2019-03-24T11:54:58.916Z,1.82
2019-03-24T11:57:25.550Z,1.70
2019-03-24T11:59:52.300Z,2.12
2019-03-24T12:02:18.928Z,1.55
2019-03-24T12:04:45.912Z,2.00
2019-03-24T12:07:12.429Z,1.70
2019-03-24T12:09:39.209Z,3.65
2019-03-24T12:12:05.830Z,2.12
2019-03-24T12:14:32.337Z,2.58
2019-03-24T12:16:58.875Z,2.25
2019-03-24T12:19:25.490Z,1.98
2019-03-24T12:21:52.114Z,1.72
2019-03-24T12:24:19.035Z,2.20
2019-03-24T12:26:45.549Z,1.80
2019-03-24T12:29:12.190Z,2.12
2019-03-24T12:31:38.869Z,2.30
2019-03-24T12:34:06.405Z,2.27
2019-03-24T12:36:33.646Z,3.00
2019-03-24T12:39:00.287Z,1.92
2019-03-24T12:41:26.904Z,1.67
2019-03-24T12:43:53.867Z,1.40
2019-03-24T12:46:20.310Z,1.75
2019-03-24T12:48:46.938Z,1.85
2019-03-24T12:51:13.368Z,2.05
2019-03-24T12:53:39.990Z,2.60
2019-03-24T12:56:06.944Z,2.12
2019-03-24T12:58:33.476Z,1.95
2019-03-24T13:01:00.305Z,2.37
2019-03-24T13:03:26.923Z,1.90
2019-03-24T13:05:53.486Z,2.30
2019-03-24T13:08:20.063Z,2.00
2019-03-24T13:10:47.002Z,1.90
2019-03-24T13:13:13.848Z,2.20
2019-03-24T13:15:40.499Z,2.55
2019-03-24T13:18:07.059Z,3.72
2019-03-24T13:20:38.295Z,2.85
2019-03-24T13:23:02.759Z,1.92
2019-03-24T13:25:29.569Z,4.00
2019-03-24T13:27:56.277Z,3.33
2019-03-24T13:30:22.891Z,2.50
2019-03-24T13:32:49.512Z,1.50
2019-03-24T13:35:16.130Z,2.42
2019-03-24T13:37:42.709Z,2.52
2019-03-24T13:40:09.425Z,2.50
2019-03-24T13:42:36.182Z,1.72
2019-03-24T13:45:04.798Z,1.57
2019-03-24T13:47:31.430Z,5.45
2019-03-24T13:49:58.101Z,3.80
2019-03-24T13:52:24.724Z,2.65
2019-03-24T13:54:51.338Z,1.98
2019-03-24T13:57:17.974Z,1.87
2019-03-24T13:59:44.619Z,2.40
2019-03-24T14:02:11.232Z,2.10
2019-03-24T14:04:37.878Z,1.72
2019-03-24T14:07:04.423Z,1.80
2019-03-24T14:09:31.031Z,2.12
2019-03-24T14:11:57.655Z,2.22
2019-03-24T14:14:24.408Z,2.40
2019-03-24T14:16:51.027Z,2.25
2019-03-24T14:19:17.778Z,2.45
2019-03-24T14:21:44.293Z,2.20
2019-03-24T14:24:10.810Z,1.50
2019-03-24T14:26:37.462Z,1.80
2019-03-24T14:29:04.086Z,2.12
2019-03-24T14:31:30.600Z,1.90
2019-03-24T14:33:57.164Z,2.72
2019-03-24T14:36:23.779Z,2.37
2019-03-24T14:38:50.493Z,2.33
2019-03-24T14:41:17.069Z,2.12
2019-03-24T14:43:43.469Z,2.15
2019-03-24T14:46:10.109Z,2.00
2019-03-24T14:48:36.877Z,2.05
2019-03-24T14:51:03.284Z,2.10
2019-03-24T14:53:29.910Z,1.57
2019-03-24T14:55:56.544Z,1.90
2019-03-24T14:58:23.160Z,2.00
2019-03-24T15:00:49.790Z,1.65
2019-03-24T15:03:16.413Z,1.70
2019-03-24T15:05:43.041Z,2.22
2019-03-24T15:08:09.690Z,1.77
2019-03-24T15:10:36.234Z,2.15
2019-03-24T15:13:02.732Z,2.17
2019-03-24T15:15:29.582Z,2.00
2019-03-24T15:17:56.501Z,1.98
2019-03-24T15:20:23.018Z,2.00
2019-03-24T15:22:49.632Z,1.77
2019-03-24T15:25:16.289Z,2.02
2019-03-24T15:27:42.917Z,2.15
2019-03-24T15:30:09.570Z,1.67
2019-03-24T15:32:36.186Z,1.55
2019-03-24T15:35:04.541Z,2.12
2019-03-24T15:37:31.161Z,2.15
2019-03-24T15:39:57.886Z,1.70
2019-03-24T15:42:24.532Z,1.80
2019-03-24T15:44:51.134Z,1.57
2019-03-24T15:47:17.668Z,4.12
2019-03-24T15:49:44.299Z,2.62
2019-03-24T15:52:10.703Z,1.60
2019-03-24T15:54:37.138Z,1.82
2019-03-24T15:57:03.665Z,2.08
2019-03-24T15:59:30.477Z,2.30
2019-03-24T16:02:16.853Z,1.98
2019-03-24T16:04:43.377Z,1.90
2019-03-24T16:07:10.034Z,2.12
2019-03-24T16:09:36.843Z,1.98
2019-03-24T16:12:03.461Z,2.00
2019-03-24T16:14:30.098Z,2.15
2019-03-24T16:16:57.074Z,1.90
2019-03-24T16:19:23.591Z,2.27
2019-03-24T16:21:50.118Z,2.40
2019-03-24T16:24:16.664Z,2.10
2019-03-24T16:26:43.182Z,1.90
2019-03-24T16:29:09.838Z,2.02
2019-03-24T16:31:36.473Z,2.35
2019-03-24T16:34:05.350Z,2.27
2019-03-24T16:36:31.333Z,1.60
2019-03-24T16:39:03.450Z,2.52
2019-03-24T16:41:26.500Z,1.95
2019-03-24T16:43:53.121Z,1.70
2019-03-24T16:46:19.678Z,1.72
2019-03-24T16:48:46.309Z,1.70
2019-03-24T16:51:12.948Z,1.75
2019-03-24T16:53:39.594Z,1.80
2019-03-24T16:56:06.204Z,1.98
2019-03-24T16:58:32.833Z,2.00
2019-03-24T17:00:59.389Z,2.12
2019-03-24T17:03:26.031Z,1.77
2019-03-24T17:05:52.679Z,1.95
2019-03-24T17:08:19.322Z,1.50
2019-03-24T17:10:46.006Z,1.70
2019-03-24T17:13:12.644Z,1.95
2019-03-24T17:15:39.711Z,1.82
2019-03-24T17:18:06.328Z,1.85
2019-03-24T17:20:32.996Z,2.10
2019-03-24T17:22:59.530Z,2.30
2019-03-24T17:25:26.577Z,2.02
2019-03-24T17:27:53.174Z,2.33
2019-03-24T17:30:19.779Z,2.55
2019-03-24T17:32:46.410Z,2.12
2019-03-24T17:35:13.022Z,2.67
2019-03-24T17:37:39.679Z,2.20
2019-03-24T17:40:07.617Z,2.08
2019-03-24T17:42:34.308Z,2.20
2019-03-24T17:45:01.166Z,2.00
2019-03-24T17:47:27.735Z,2.65
2019-03-24T17:49:54.343Z,3.10
2019-03-24T17:52:21.182Z,3.47
2019-03-24T17:54:47.695Z,3.20
2019-03-24T17:57:14.228Z,3.80
2019-03-24T17:59:41.109Z,3.55
2019-03-24T18:02:14.133Z,3.45
2019-03-24T18:04:36.232Z,3.87
2019-03-24T18:07:02.762Z,2.75
2019-03-24T18:09:29.417Z,2.80
2019-03-24T18:11:56.424Z,2.10
2019-03-24T18:14:23.041Z,2.02
2019-03-24T18:16:49.730Z,2.62
2019-03-24T18:19:16.280Z,2.30
2019-03-24T18:21:43.013Z,2.17
2019-03-24T18:24:09.712Z,2.30
2019-03-24T18:26:36.374Z,2.25
2019-03-24T18:29:03.033Z,2.15
2019-03-24T18:31:29.537Z,2.15
2019-03-24T18:33:56.232Z,2.00
2019-03-24T18:36:23.036Z,1.90
2019-03-24T18:38:49.664Z,2.10
2019-03-24T18:41:16.210Z,2.00
2019-03-24T18:43:43.385Z,2.22
2019-03-24T18:46:09.898Z,1.87
2019-03-24T18:48:36.545Z,2.50
2019-03-24T18:51:03.192Z,2.02
2019-03-24T18:53:29.819Z,1.95
2019-03-24T18:55:56.471Z,2.08
2019-03-24T18:58:23.121Z,2.67
2019-03-24T19:00:49.755Z,2.27
2019-03-24T19:03:16.386Z,2.10
2019-03-24T19:05:43.033Z,1.90
2019-03-24T19:08:09.650Z,1.55
2019-03-24T19:10:36.608Z,1.90
2019-03-24T19:13:03.561Z,1.70
2019-03-24T19:15:30.180Z,2.70
2019-03-24T19:17:57.015Z,3.17
2019-03-24T19:20:23.668Z,2.15
2019-03-24T19:22:50.283Z,1.90
2019-03-24T19:25:17.048Z,2.08
2019-03-24T19:27:43.964Z,2.83
2019-03-24T19:30:13.794Z,2.05
2019-03-24T19:32:40.297Z,1.85
2019-03-24T19:35:06.919Z,1.85
2019-03-24T19:37:34.144Z,1.82
2019-03-24T19:40:00.763Z,2.20
2019-03-24T19:42:27.758Z,5.65
2019-03-24T19:44:54.995Z,2.33
2019-03-24T19:47:21.635Z,3.20
2019-03-24T19:49:48.208Z,2.35
2019-03-24T19:52:14.741Z,2.12
2019-03-24T19:54:41.241Z,1.80
2019-03-24T19:57:10.894Z,2.30
2019-03-24T19:59:37.453Z,2.08
2019-03-24T20:02:04.062Z,1.50
2019-03-24T20:04:30.723Z,2.27
2019-03-24T20:06:57.362Z,1.90
2019-03-24T20:09:23.964Z,3.22
2019-03-24T20:11:50.553Z,4.00
2019-03-24T20:14:17.191Z,3.92
2019-03-24T20:16:43.814Z,4.83
2019-03-24T20:19:10.467Z,6.05
2019-03-24T20:21:37.118Z,4.30
2019-03-24T20:24:03.641Z,5.92
2019-03-24T20:26:30.309Z,5.97
2019-03-24T20:28:56.954Z,5.72
2019-03-24T20:31:23.581Z,5.87
2019-03-24T20:33:50.705Z,5.15
2019-03-24T20:36:17.114Z,5.12
2019-03-24T20:38:43.729Z,4.05
2019-03-24T20:41:10.162Z,3.30
2019-03-24T20:43:36.820Z,2.30
2019-03-24T20:46:03.526Z,2.42
2019-03-24T20:48:30.184Z,2.75
2019-03-24T20:50:56.810Z,2.92
2019-03-24T20:53:23.418Z,2.55
2019-03-24T20:55:50.118Z,1.90
2019-03-24T20:58:16.743Z,2.20
2019-03-24T21:00:43.370Z,1.65
2019-03-24T21:03:10.038Z,2.58
2019-03-24T21:05:36.666Z,2.83
2019-03-24T21:08:03.277Z,2.75
2019-03-24T21:10:29.958Z,2.75
2019-03-24T21:12:56.779Z,4.35
2019-03-24T21:15:23.333Z,6.95
2019-03-24T21:17:50.052Z,4.00
2019-03-24T21:20:16.590Z,4.30
2019-03-24T21:22:43.472Z,3.20
2019-03-24T21:25:10.143Z,3.37
2019-03-24T21:27:36.654Z,3.62
2019-03-24T21:30:06.573Z,3.40
2019-03-24T21:32:33.738Z,3.87
2019-03-24T21:35:00.460Z,3.30
2019-03-24T21:37:27.636Z,2.95
2019-03-24T21:39:54.422Z,3.10
2019-03-24T21:42:21.046Z,2.67
2019-03-24T21:44:47.609Z,3.87
2019-03-24T21:47:14.692Z,2.30
2019-03-24T21:49:41.211Z,2.83
2019-03-24T21:52:08.077Z,3.15
2019-03-24T21:54:34.626Z,5.35
2019-03-24T21:57:01.147Z,3.27
2019-03-24T21:59:27.978Z,3.40
2019-03-24T22:01:54.401Z,4.20
2019-03-24T22:04:20.903Z,4.40
2019-03-24T22:06:47.563Z,4.08
2019-03-24T22:09:14.185Z,4.75
2019-03-24T22:11:40.711Z,5.05
2019-03-24T22:14:07.274Z,5.47
2019-03-24T22:16:33.905Z,5.30
2019-03-24T22:19:00.560Z,4.67
2019-03-24T22:21:27.057Z,4.33
2019-03-24T22:23:54.159Z,4.90
2019-03-24T22:26:20.772Z,4.95
2019-03-24T22:28:47.310Z,4.85
2019-03-24T22:31:13.959Z,4.62
2019-03-24T22:33:40.721Z,4.55
2019-03-24T22:36:07.234Z,5.10
2019-03-24T22:38:34.126Z,6.08
2019-03-24T22:41:00.798Z,2.60
2019-03-24T22:43:27.303Z,2.45
2019-03-24T22:45:53.970Z,2.58
2019-03-24T22:48:21.062Z,1.82
2019-03-24T22:50:47.701Z,2.20
2019-03-24T22:53:14.548Z,1.90
2019-03-24T22:55:40.958Z,1.90
2019-03-24T22:58:07.582Z,1.95
2019-03-24T23:00:42.257Z,1.60
2019-03-24T23:03:09.562Z,2.00
2019-03-24T23:05:36.189Z,1.85
2019-03-24T23:08:02.992Z,2.27
2019-03-24T23:10:29.487Z,1.98
2019-03-24T23:12:55.992Z,1.80
2019-03-24T23:15:22.538Z,2.35
2019-03-24T23:17:49.053Z,1.80
2019-03-24T23:20:16.171Z,1.75
2019-03-24T23:22:42.823Z,1.80
2019-03-24T23:25:09.444Z,1.85
2019-03-24T23:27:35.857Z,2.12
2019-03-24T23:30:06.996Z,2.20
2019-03-24T23:32:33.551Z,2.02
2019-03-24T23:35:00.383Z,2.50
2019-03-24T23:37:27.110Z,2.65
2019-03-24T23:39:53.666Z,2.45
2019-03-24T23:42:20.275Z,2.27
2019-03-24T23:44:47.112Z,2.45
2019-03-24T23:47:13.734Z,3.67
2019-03-24T23:49:40.656Z,1.87
2019-03-24T23:52:07.356Z,2.05
2019-03-24T23:54:33.999Z,2.15
2019-03-24T23:57:00.605Z,2.35
2019-03-24T23:59:27.267Z,2.30
